createdAt,value
2023-05-05T00:01:06.198Z,2.38
2023-05-05T00:03:33.245Z,2.30
2023-05-05T00:05:59.791Z,2.63
2023-05-05T00:08:26.431Z,2.50
2023-05-05T00:10:53.368Z,2.25
2023-05-05T00:13:20.328Z,2.38
2023-05-05T00:15:47.833Z,2.35
2023-05-05T00:18:15.704Z,2.33
2023-05-05T00:20:42.891Z,3.03
2023-05-05T00:23:09.347Z,2.35
2023-05-05T00:25:35.837Z,2.45
2023-05-05T00:28:02.356Z,2.13
2023-05-05T00:30:28.837Z,1.85
2023-05-05T00:32:55.578Z,2.10
2023-05-05T00:35:22.099Z,1.90
2023-05-05T00:37:49.206Z,2.30
2023-05-05T00:40:16.071Z,1.90
2023-05-05T00:42:47.806Z,1.90
2023-05-05T00:45:15.249Z,1.70
2023-05-05T00:47:42.428Z,1.70
2023-05-05T00:50:09.422Z,1.52
2023-05-05T00:52:36.894Z,1.58
2023-05-05T00:55:04.468Z,1.60
2023-05-05T00:57:32.332Z,1.75
2023-05-05T00:59:59.128Z,1.90
2023-05-05T01:02:25.753Z,2.40
2023-05-05T01:04:52.692Z,2.20
2023-05-05T01:07:48.300Z,2.30
2023-05-05T01:10:20.184Z,2.10
2023-05-05T01:13:05.929Z,2.10
2023-05-05T01:15:40.414Z,2.33
2023-05-05T01:18:11.856Z,2.03
2023-05-05T01:21:07.114Z,1.95
2023-05-05T01:24:14.028Z,2.17
2023-05-05T01:27:27.279Z,2.53
2023-05-05T01:30:01.998Z,2.70
2023-05-05T01:32:29.978Z,2.70
2023-05-05T01:34:59.677Z,2.35
2023-05-05T01:37:49.561Z,2.63
2023-05-05T01:40:16.335Z,3.10
2023-05-05T01:42:43.497Z,2.95
2023-05-05T01:45:11.836Z,3.00
2023-05-05T01:47:38.337Z,2.78
2023-05-05T01:50:06.236Z,2.67
2023-05-05T01:52:33.378Z,2.92
2023-05-05T01:54:59.885Z,2.78
2023-05-05T01:57:26.540Z,2.72
2023-05-05T01:59:53.009Z,3.60
2023-05-05T02:02:20.049Z,3.60
2023-05-05T02:04:46.820Z,3.10
2023-05-05T02:07:13.665Z,3.30
2023-05-05T02:09:40.146Z,3.13
2023-05-05T02:12:06.815Z,3.00
2023-05-05T02:14:33.268Z,3.40
2023-05-05T02:16:59.755Z,3.13
2023-05-05T02:19:30.950Z,2.90
2023-05-05T02:21:57.555Z,3.05
2023-05-05T02:24:24.735Z,3.10
2023-05-05T02:26:52.022Z,3.15
2023-05-05T02:29:31.507Z,3.05
2023-05-05T02:32:01.895Z,3.30
2023-05-05T02:34:28.410Z,3.05
2023-05-05T02:36:57.659Z,2.72
2023-05-05T02:39:45.260Z,2.65
2023-05-05T02:42:13.460Z,2.83
2023-05-05T02:44:41.286Z,2.90
2023-05-05T02:47:07.987Z,3.05
2023-05-05T02:49:34.456Z,3.03
2023-05-05T02:52:01.018Z,2.95
2023-05-05T02:54:27.500Z,2.90
2023-05-05T02:56:53.961Z,3.30
2023-05-05T02:59:31.014Z,3.33
2023-05-05T03:02:07.661Z,2.92
2023-05-05T03:04:47.200Z,3.17
2023-05-05T03:07:35.856Z,3.20
2023-05-05T03:10:10.278Z,3.28
2023-05-05T03:15:08.069Z,3.08
2023-05-05T03:17:34.560Z,3.05
2023-05-05T03:20:03.474Z,2.95
2023-05-05T03:22:30.634Z,2.92
2023-05-05T03:24:57.082Z,2.95
2023-05-05T03:27:23.579Z,3.03
2023-05-05T03:29:50.058Z,3.20
2023-05-05T03:32:16.603Z,3.30
2023-05-05T03:34:43.140Z,2.63
2023-05-05T03:37:09.595Z,2.80
2023-05-05T03:39:36.090Z,3.03
2023-05-05T03:42:02.618Z,2.70
2023-05-05T03:44:29.116Z,2.72
2023-05-05T03:46:55.637Z,3.10
2023-05-05T03:49:22.102Z,2.75
2023-05-05T03:51:48.566Z,2.72
2023-05-05T03:54:15.358Z,2.88
2023-05-05T03:56:41.893Z,3.03
2023-05-05T03:59:08.782Z,2.88
2023-05-05T04:01:35.706Z,2.72
2023-05-05T04:04:02.230Z,2.67
2023-05-05T04:06:28.782Z,3.03
2023-05-05T04:08:55.569Z,3.00
2023-05-05T04:11:22.060Z,2.78
2023-05-05T04:13:49.925Z,2.75
2023-05-05T04:16:16.683Z,2.70
2023-05-05T04:18:43.188Z,2.63
2023-05-05T04:21:09.647Z,2.55
2023-05-05T04:23:36.105Z,2.33
2023-05-05T04:26:03.018Z,2.78
2023-05-05T04:28:29.753Z,2.70
2023-05-05T04:30:56.267Z,2.58
2023-05-05T04:33:22.803Z,3.08
2023-05-05T04:35:49.294Z,3.17
2023-05-05T04:38:15.993Z,2.90
2023-05-05T04:40:42.602Z,3.00
2023-05-05T04:43:09.079Z,2.95
2023-05-05T04:45:35.591Z,2.60
2023-05-05T04:48:02.158Z,3.03
2023-05-05T04:50:28.665Z,2.63
2023-05-05T04:52:56.226Z,2.67
2023-05-05T04:55:22.767Z,2.50
2023-05-05T04:57:49.227Z,3.13
2023-05-05T05:00:16.069Z,3.13
2023-05-05T05:02:42.602Z,3.30
2023-05-05T05:05:09.610Z,3.00
2023-05-05T05:07:36.175Z,2.80
2023-05-05T05:10:02.697Z,3.28
2023-05-05T05:12:29.173Z,2.30
2023-05-05T05:14:55.854Z,2.63
2023-05-05T05:17:23.771Z,2.80
2023-05-05T05:19:50.268Z,2.70
2023-05-05T05:22:16.770Z,2.40
2023-05-05T05:24:43.272Z,2.35
2023-05-05T05:27:10.334Z,2.72
2023-05-05T05:29:36.962Z,2.83
2023-05-05T05:32:03.475Z,2.65
2023-05-05T05:34:29.961Z,2.80
2023-05-05T05:36:56.498Z,2.58
2023-05-05T05:39:23.215Z,2.75
2023-05-05T05:41:49.670Z,3.10
2023-05-05T05:44:16.129Z,2.67
2023-05-05T05:46:42.660Z,3.35
2023-05-05T05:49:09.253Z,3.20
2023-05-05T05:51:35.718Z,3.20
2023-05-05T05:54:02.193Z,2.92
2023-05-05T05:56:29.298Z,2.80
2023-05-05T05:58:56.177Z,2.83
2023-05-05T06:01:22.624Z,2.72
2023-05-05T06:03:49.174Z,2.80
2023-05-05T06:06:15.725Z,2.90
2023-05-05T06:08:42.206Z,2.63
2023-05-05T06:11:08.734Z,2.90
2023-05-05T06:13:35.293Z,2.47
2023-05-05T06:16:01.873Z,2.70
2023-05-05T06:18:28.669Z,2.60
2023-05-05T06:20:55.158Z,3.05
2023-05-05T06:23:21.997Z,2.70
2023-05-05T06:25:48.478Z,2.40
2023-05-05T06:28:14.978Z,2.65
2023-05-05T06:30:41.442Z,2.72
2023-05-05T06:33:07.966Z,2.75
2023-05-05T06:35:34.575Z,2.30
2023-05-05T06:38:01.124Z,2.80
2023-05-05T06:40:27.660Z,2.70
2023-05-05T06:42:54.130Z,2.72
2023-05-05T06:45:20.582Z,2.80
2023-05-05T06:47:47.145Z,2.80
2023-05-05T06:50:13.644Z,2.47
2023-05-05T06:52:41.114Z,2.50
2023-05-05T06:55:07.973Z,2.20
2023-05-05T06:57:34.489Z,2.20
2023-05-05T07:00:01.129Z,2.80
2023-05-05T07:02:27.747Z,2.50
2023-05-05T07:04:55.412Z,2.70
2023-05-05T07:07:22.355Z,2.40
2023-05-05T07:09:48.992Z,2.30
2023-05-05T07:12:15.535Z,1.95
2023-05-05T07:14:42.078Z,2.35
2023-05-05T07:17:08.604Z,2.55
2023-05-05T07:19:35.106Z,2.60
2023-05-05T07:22:01.631Z,2.20
2023-05-05T07:24:28.123Z,2.35
2023-05-05T07:26:54.574Z,2.50
2023-05-05T07:29:21.096Z,2.15
2023-05-05T07:31:47.664Z,2.38
2023-05-05T07:34:14.148Z,2.10
2023-05-05T07:36:40.766Z,1.88
2023-05-05T07:39:07.377Z,1.90
2023-05-05T07:41:33.896Z,1.80
2023-05-05T07:44:01.153Z,1.63
2023-05-05T07:46:27.658Z,2.42
2023-05-05T07:48:54.192Z,2.38
2023-05-05T07:51:21.460Z,2.28
2023-05-05T07:53:48.035Z,2.40
2023-05-05T07:56:14.519Z,2.10
2023-05-05T07:58:41.005Z,2.00
2023-05-05T08:01:10.739Z,1.77
2023-05-05T08:03:37.425Z,1.90
2023-05-05T08:06:11.264Z,2.25
2023-05-05T08:08:37.870Z,1.90
2023-05-05T08:11:06.331Z,1.40
2023-05-05T08:13:32.893Z,1.40
2023-05-05T08:15:59.426Z,1.30
2023-05-05T08:18:26.497Z,2.08
2023-05-05T08:20:54.553Z,1.95
2023-05-05T08:23:21.516Z,1.90
2023-05-05T08:25:48.001Z,1.70
2023-05-05T08:28:14.478Z,1.48
2023-05-05T08:30:41.049Z,1.50
2023-05-05T08:33:07.558Z,1.58
2023-05-05T08:35:34.098Z,1.58
2023-05-05T08:38:00.582Z,2.00
2023-05-05T08:40:30.078Z,1.67
2023-05-05T08:42:56.586Z,1.60
2023-05-05T08:45:23.057Z,1.50
2023-05-05T08:47:49.545Z,1.75
2023-05-05T08:50:16.328Z,1.80
2023-05-05T08:52:45.837Z,1.80
2023-05-05T08:55:26.255Z,1.75
2023-05-05T08:57:56.904Z,1.85
2023-05-05T09:00:23.745Z,1.60
2023-05-05T09:02:50.376Z,2.20
2023-05-05T09:05:17.640Z,2.55
2023-05-05T09:07:44.261Z,2.50
2023-05-05T09:10:11.437Z,2.38
2023-05-05T09:12:40.417Z,2.70
2023-05-05T09:15:14.202Z,2.40
2023-05-05T09:17:41.049Z,2.45
2023-05-05T09:20:11.696Z,2.85
2023-05-05T09:22:46.107Z,2.50
2023-05-05T09:25:13.993Z,2.20
2023-05-05T09:27:49.575Z,2.00
2023-05-05T09:30:17.523Z,2.20
2023-05-05T09:32:53.933Z,2.42
2023-05-05T09:35:21.074Z,2.17
2023-05-05T09:37:47.535Z,2.17
2023-05-05T09:40:15.380Z,2.05
2023-05-05T09:42:41.885Z,1.90
2023-05-05T09:45:17.308Z,2.47
2023-05-05T09:47:45.573Z,1.88
2023-05-05T09:50:15.832Z,1.83
2023-05-05T09:52:42.871Z,1.95
2023-05-05T09:55:17.513Z,1.83
2023-05-05T09:57:44.028Z,1.85
2023-05-05T10:00:11.167Z,2.03
2023-05-05T10:02:38.826Z,1.90
2023-05-05T10:05:09.563Z,2.00
2023-05-05T10:07:36.778Z,2.03
2023-05-05T10:10:04.870Z,2.38
2023-05-05T10:12:31.381Z,2.15
2023-05-05T10:14:57.956Z,2.00
2023-05-05T10:17:24.459Z,2.08
2023-05-05T10:19:51.863Z,2.20
2023-05-05T10:22:18.359Z,1.98
2023-05-05T10:24:47.492Z,2.00
2023-05-05T10:27:20.502Z,1.77
2023-05-05T10:29:49.937Z,1.60
2023-05-05T10:32:53.504Z,2.00
2023-05-05T10:35:22.108Z,2.03
2023-05-05T10:37:49.135Z,1.60
2023-05-05T10:40:15.903Z,2.00
2023-05-05T10:42:42.522Z,1.85
2023-05-05T10:45:09.472Z,1.77
2023-05-05T10:47:36.707Z,1.67
2023-05-05T10:50:14.812Z,1.73
2023-05-05T10:53:08.817Z,1.85
2023-05-05T10:55:41.972Z,1.70
2023-05-05T10:58:08.432Z,1.90
2023-05-05T11:00:37.868Z,1.83
2023-05-05T11:03:16.726Z,1.80
2023-05-05T11:06:15.816Z,2.00
2023-05-05T11:08:43.581Z,1.50
2023-05-05T11:11:10.856Z,2.10
2023-05-05T11:13:38.580Z,1.60
2023-05-05T11:16:05.385Z,1.73
2023-05-05T11:18:39.348Z,2.05
2023-05-05T11:21:18.157Z,2.22
2023-05-05T11:23:49.096Z,2.50
2023-05-05T11:26:16.191Z,2.10
2023-05-05T11:29:00.119Z,1.30
2023-05-05T11:31:26.815Z,1.80
2023-05-05T11:33:53.509Z,1.73
2023-05-05T11:36:20.464Z,1.70
2023-05-05T11:39:08.824Z,1.88
2023-05-05T11:41:56.510Z,2.00
2023-05-05T11:44:30.736Z,2.10
2023-05-05T11:46:57.104Z,2.00
2023-05-05T11:49:29.390Z,1.30
2023-05-05T11:52:05.926Z,1.40
2023-05-05T11:54:32.564Z,2.78
2023-05-05T11:57:07.732Z,2.45
2023-05-05T11:59:36.285Z,2.63
2023-05-05T12:02:03.618Z,2.90
2023-05-05T12:04:31.056Z,2.92
2023-05-05T12:06:57.864Z,3.80
2023-05-05T12:09:24.364Z,3.90
2023-05-05T12:11:58.044Z,5.05
2023-05-05T12:14:25.012Z,5.43
2023-05-05T12:16:58.045Z,5.15
2023-05-05T12:19:24.561Z,4.55
2023-05-05T12:21:51.264Z,7.15
2023-05-05T12:24:17.734Z,5.63
2023-05-05T12:26:44.230Z,4.20
2023-05-05T12:29:10.865Z,4.75
2023-05-05T12:31:38.121Z,3.35
2023-05-05T12:34:05.138Z,3.58
2023-05-05T12:36:33.584Z,3.78
2023-05-05T12:39:00.160Z,3.35
2023-05-05T12:41:26.861Z,3.92
2023-05-05T12:43:59.596Z,4.40
2023-05-05T12:46:26.437Z,3.15
2023-05-05T12:49:06.740Z,3.75
2023-05-05T12:51:34.023Z,3.40
2023-05-05T12:54:10.199Z,3.92
2023-05-05T12:56:40.477Z,4.07
2023-05-05T12:59:08.059Z,3.70
2023-05-05T13:01:50.197Z,3.83
2023-05-05T13:04:16.908Z,4.07
2023-05-05T13:06:44.990Z,3.58
2023-05-05T13:09:28.198Z,3.53
2023-05-05T13:11:54.775Z,3.50
2023-05-05T13:14:21.559Z,3.35
2023-05-05T13:16:48.091Z,3.38
2023-05-05T13:19:14.619Z,2.85
2023-05-05T13:21:41.721Z,2.92
2023-05-05T13:24:23.715Z,3.30
2023-05-05T13:26:55.759Z,2.58
2023-05-05T13:29:24.258Z,2.40
2023-05-05T13:31:52.701Z,1.60
2023-05-05T13:34:19.246Z,1.40
2023-05-05T13:36:45.848Z,1.40
2023-05-05T13:39:12.589Z,1.80
2023-05-05T13:41:39.165Z,2.03
2023-05-05T13:44:05.661Z,1.90
2023-05-05T13:46:32.620Z,1.70
2023-05-05T13:48:59.143Z,1.60
2023-05-05T13:51:25.683Z,1.40
2023-05-05T13:53:52.390Z,1.25
2023-05-05T13:56:19.118Z,1.60
2023-05-05T13:58:46.310Z,1.40
2023-05-05T14:01:12.879Z,1.50
2023-05-05T14:03:39.662Z,1.45
2023-05-05T14:06:07.454Z,1.77
2023-05-05T14:08:34.055Z,1.35
2023-05-05T14:11:00.570Z,1.67
2023-05-05T14:13:27.016Z,1.88
2023-05-05T14:15:53.792Z,1.88
2023-05-05T14:18:20.763Z,1.73
2023-05-05T14:20:47.269Z,1.63
2023-05-05T14:23:13.730Z,1.60
2023-05-05T14:25:40.222Z,1.35
2023-05-05T14:28:07.097Z,1.50
2023-05-05T14:30:33.588Z,1.70
2023-05-05T14:33:01.193Z,1.67
2023-05-05T14:35:27.819Z,1.33
2023-05-05T14:37:54.278Z,1.60
2023-05-05T14:40:20.776Z,1.70
2023-05-05T14:42:47.229Z,1.70
2023-05-05T14:45:13.682Z,1.55
2023-05-05T14:47:40.363Z,1.45
2023-05-05T14:50:09.620Z,1.40
2023-05-05T14:52:40.276Z,1.10
2023-05-05T14:55:07.427Z,1.42
2023-05-05T14:57:34.450Z,1.10
2023-05-05T15:00:00.923Z,0.98
2023-05-05T15:02:27.500Z,0.95
2023-05-05T15:04:54.044Z,1.08
2023-05-05T15:07:22.031Z,0.90
2023-05-05T15:09:48.501Z,0.98
2023-05-05T15:12:14.993Z,1.00
2023-05-05T15:14:42.160Z,1.00
2023-05-05T15:17:08.685Z,1.00
2023-05-05T15:19:35.198Z,1.20
2023-05-05T15:22:01.705Z,1.33
2023-05-05T15:24:28.247Z,1.08
2023-05-05T15:26:54.769Z,1.20
2023-05-05T15:29:21.470Z,1.02
2023-05-05T15:31:47.987Z,1.35
2023-05-05T15:34:14.497Z,1.17
2023-05-05T15:36:40.968Z,1.10
2023-05-05T15:39:07.449Z,1.15
2023-05-05T15:41:34.061Z,1.10
2023-05-05T15:44:02.012Z,1.30
2023-05-05T15:46:31.326Z,1.30
2023-05-05T15:48:57.877Z,1.10
2023-05-05T15:51:24.390Z,1.50
2023-05-05T15:53:52.320Z,1.58
2023-05-05T15:56:19.177Z,1.30
2023-05-05T15:58:45.712Z,1.20
2023-05-05T16:01:12.363Z,1.60
2023-05-05T16:03:38.854Z,1.50
2023-05-05T16:06:05.594Z,1.60
2023-05-05T16:08:32.176Z,1.60
2023-05-05T16:10:58.638Z,1.30
2023-05-05T16:13:25.234Z,1.20
2023-05-05T16:15:51.713Z,1.60
2023-05-05T16:18:18.177Z,1.35
2023-05-05T16:20:44.690Z,1.30
2023-05-05T16:23:11.220Z,1.30
2023-05-05T16:25:37.712Z,1.50
2023-05-05T16:28:04.425Z,1.80
2023-05-05T16:30:30.902Z,1.48
2023-05-05T16:32:57.408Z,1.73
2023-05-05T16:35:23.972Z,1.35
2023-05-05T16:37:50.469Z,1.33
2023-05-05T16:40:16.968Z,1.65
2023-05-05T16:42:44.632Z,2.00
2023-05-05T16:45:11.517Z,1.65
2023-05-05T16:47:38.325Z,1.70
2023-05-05T16:50:05.395Z,2.00
2023-05-05T16:52:31.865Z,1.65
2023-05-05T16:54:58.314Z,2.00
2023-05-05T16:57:24.842Z,2.15
2023-05-05T16:59:55.512Z,1.90
2023-05-05T17:02:22.187Z,2.00
2023-05-05T17:04:49.093Z,1.90
2023-05-05T17:07:15.604Z,1.67
2023-05-05T17:09:42.080Z,1.90
2023-05-05T17:12:08.603Z,2.10
2023-05-05T17:14:35.453Z,2.00
2023-05-05T17:17:01.988Z,1.83
2023-05-05T17:19:28.511Z,1.70
2023-05-05T17:21:55.181Z,1.95
2023-05-05T17:24:21.909Z,1.73
2023-05-05T17:26:48.797Z,1.90
2023-05-05T17:29:19.565Z,1.67
2023-05-05T17:31:46.564Z,2.10
2023-05-05T17:34:13.071Z,1.92
2023-05-05T17:36:39.603Z,1.83
2023-05-05T17:39:06.122Z,2.05
2023-05-05T17:41:32.608Z,2.15
2023-05-05T17:43:59.444Z,1.92
2023-05-05T17:46:26.156Z,1.90
2023-05-05T17:48:52.984Z,1.67
2023-05-05T17:51:19.544Z,1.75
2023-05-05T17:53:46.023Z,1.67
2023-05-05T17:56:12.488Z,1.80
2023-05-05T17:58:39.132Z,1.70
2023-05-05T18:01:06.344Z,2.05
2023-05-05T18:03:33.100Z,1.77
2023-05-05T18:05:59.824Z,1.90
2023-05-05T18:08:26.882Z,1.70
2023-05-05T18:10:54.201Z,1.85
2023-05-05T18:13:21.445Z,1.88
2023-05-05T18:15:48.013Z,1.92
2023-05-05T18:18:14.642Z,1.70
2023-05-05T18:20:41.169Z,1.90
2023-05-05T18:23:07.649Z,1.73
2023-05-05T18:25:34.147Z,1.70
2023-05-05T18:28:00.688Z,2.05
2023-05-05T18:30:27.267Z,1.90
2023-05-05T18:32:53.821Z,1.70
2023-05-05T18:35:21.329Z,2.40
2023-05-05T18:37:47.896Z,2.10
2023-05-05T18:40:14.528Z,1.85
2023-05-05T18:42:41.552Z,2.10
2023-05-05T18:45:08.962Z,1.98
2023-05-05T18:47:39.561Z,2.00
2023-05-05T18:50:06.556Z,2.10
2023-05-05T18:52:33.262Z,2.30
2023-05-05T18:54:59.727Z,2.20
2023-05-05T18:57:27.250Z,2.40
2023-05-05T18:59:53.763Z,1.98
2023-05-05T19:02:20.249Z,2.10
2023-05-05T19:04:46.810Z,1.85
2023-05-05T19:07:23.905Z,2.20
2023-05-05T19:09:58.046Z,1.92
2023-05-05T19:12:24.591Z,2.10
2023-05-05T19:14:51.103Z,1.92
2023-05-05T19:17:17.581Z,1.88
2023-05-05T19:19:44.060Z,2.20
2023-05-05T19:22:10.528Z,2.50
2023-05-05T19:24:36.982Z,2.10
2023-05-05T19:27:03.863Z,3.00
2023-05-05T19:29:33.081Z,2.53
2023-05-05T19:31:59.589Z,2.40
2023-05-05T19:34:26.601Z,2.30
2023-05-05T19:36:53.063Z,2.40
2023-05-05T19:39:19.760Z,2.42
2023-05-05T19:41:46.491Z,2.67
2023-05-05T19:44:12.977Z,2.80
2023-05-05T19:46:39.510Z,2.42
2023-05-05T19:49:06.572Z,2.78
2023-05-05T19:51:33.079Z,2.80
2023-05-05T19:53:59.583Z,2.97
2023-05-05T19:56:26.258Z,3.45
2023-05-05T19:58:59.401Z,2.90
2023-05-05T20:01:26.788Z,3.53
2023-05-05T20:03:54.580Z,3.20
2023-05-05T20:06:21.493Z,3.50
2023-05-05T20:08:47.979Z,3.25
2023-05-05T20:11:15.359Z,3.28
2023-05-05T20:13:42.161Z,3.80
2023-05-05T20:16:08.944Z,3.15
2023-05-05T20:18:35.557Z,4.03
2023-05-05T20:21:02.102Z,3.67
2023-05-05T20:23:28.646Z,3.47
2023-05-05T20:25:55.875Z,3.10
2023-05-05T20:28:22.434Z,3.45
2023-05-05T20:30:49.002Z,3.30
2023-05-05T20:33:15.706Z,3.15
2023-05-05T20:35:42.222Z,2.80
2023-05-05T20:38:09.739Z,2.97
2023-05-05T20:40:36.338Z,3.10
2023-05-05T20:43:03.061Z,3.38
2023-05-05T20:45:31.909Z,3.30
2023-05-05T20:47:59.846Z,3.40
2023-05-05T20:50:26.607Z,3.60
2023-05-05T20:52:53.161Z,3.70
2023-05-05T20:55:19.676Z,3.58
2023-05-05T20:57:46.219Z,3.70
2023-05-05T21:00:14.366Z,3.78
2023-05-05T21:02:41.841Z,4.00
2023-05-05T21:05:08.778Z,4.20
2023-05-05T21:07:35.319Z,3.80
2023-05-05T21:10:02.474Z,4.18
2023-05-05T21:12:29.086Z,4.50
2023-05-05T21:14:59.518Z,4.20
2023-05-05T21:17:26.734Z,4.45
2023-05-05T21:19:54.029Z,4.35
2023-05-05T21:22:20.898Z,4.25
2023-05-05T21:24:47.376Z,3.83
2023-05-05T21:27:13.971Z,4.40
2023-05-05T21:29:40.808Z,3.38
2023-05-05T21:32:08.405Z,3.80
2023-05-05T21:34:34.940Z,3.75
2023-05-05T21:37:01.435Z,3.20
2023-05-05T21:39:28.357Z,3.63
2023-05-05T21:41:54.829Z,3.50
2023-05-05T21:44:21.308Z,3.65
2023-05-05T21:46:47.983Z,3.70
2023-05-05T21:49:17.669Z,4.45
2023-05-05T21:51:44.544Z,4.13
2023-05-05T21:54:10.999Z,4.35
2023-05-05T21:56:37.558Z,3.63
2023-05-05T21:59:04.814Z,4.50
2023-05-05T22:01:31.539Z,3.85
2023-05-05T22:03:58.285Z,4.32
2023-05-05T22:06:24.881Z,4.20
2023-05-05T22:08:51.585Z,4.97
2023-05-05T22:11:18.536Z,4.43
2023-05-05T22:13:46.203Z,4.72
2023-05-05T22:16:14.288Z,4.43
2023-05-05T22:18:40.792Z,4.32
2023-05-05T22:21:07.287Z,4.35
2023-05-05T22:23:33.825Z,3.97
2023-05-05T22:26:00.372Z,3.70
2023-05-05T22:28:27.704Z,4.00
2023-05-05T22:30:54.164Z,3.67
2023-05-05T22:33:20.721Z,4.22
2023-05-05T22:35:47.367Z,3.83
2023-05-05T22:38:13.853Z,4.40
2023-05-05T22:40:40.406Z,3.83
2023-05-05T22:43:06.917Z,4.30
2023-05-05T22:45:33.368Z,4.30
2023-05-05T22:47:59.949Z,4.72
2023-05-05T22:50:26.654Z,4.22
2023-05-05T22:52:53.163Z,4.47
2023-05-05T22:55:20.280Z,3.92
2023-05-05T22:57:47.348Z,3.80
2023-05-05T23:00:14.523Z,3.50
2023-05-05T23:02:41.544Z,3.03
2023-05-05T23:05:08.600Z,2.85
2023-05-05T23:07:35.263Z,3.15
2023-05-05T23:10:01.801Z,3.03
2023-05-05T23:12:28.354Z,2.70
2023-05-05T23:14:54.874Z,2.90
2023-05-05T23:17:21.360Z,2.90
2023-05-05T23:19:48.092Z,2.28
2023-05-05T23:22:14.667Z,2.47
2023-05-05T23:27:07.617Z,3.17
2023-05-05T23:29:34.132Z,2.67
2023-05-05T23:32:00.648Z,2.90
2023-05-05T23:34:27.162Z,2.53
2023-05-05T23:36:53.621Z,2.90
2023-05-05T23:39:20.081Z,2.88
2023-05-05T23:41:46.604Z,3.25
2023-05-05T23:44:13.147Z,3.25
2023-05-05T23:46:39.730Z,3.22
2023-05-05T23:49:06.251Z,3.20
2023-05-05T23:51:32.739Z,3.33
2023-05-05T23:53:59.395Z,2.90
2023-05-05T23:56:26.295Z,2.88
2023-05-05T23:58:53.008Z,3.30
